sensor_id;sensor_type;location;lat;lon;timestamp;pressure;altitude;pressure_sealevel;temperature;humidity
18022;BME280;9136;48.822;7.966;2023-08-06T00:02:39;99391.63;;;15.65;100.00
18022;BME280;9136;48.822;7.966;2023-08-06T00:05:27;99378.78;;;15.71;100.00
18022;BME280;9136;48.822;7.966;2023-08-06T00:08:15;99385.59;;;15.76;100.00
18022;BME280;9136;48.822;7.966;2023-08-06T00:11:02;99400.75;;;15.86;100.00
18022;BME280;9136;48.822;7.966;2023-08-06T00:13:50;99388.47;;;15.85;100.00
18022;BME280;9136;48.822;7.966;2023-08-06T00:16:39;99393.53;;;15.88;100.00
18022;BME280;9136;48.822;7.966;2023-08-06T00:19:27;99379.78;;;15.83;100.00
18022;BME280;9136;48.822;7.966;2023-08-06T00:22:15;99375.13;;;15.99;100.00
18022;BME280;9136;48.822;7.966;2023-08-06T00:25:03;99382.13;;;16.00;100.00
18022;BME280;9136;48.822;7.966;2023-08-06T00:27:51;99369.63;;;16.02;100.00
18022;BME280;9136;48.822;7.966;2023-08-06T00:30:39;99376.19;;;16.10;100.00
18022;BME280;9136;48.822;7.966;2023-08-06T00:33:29;99374.09;;;16.15;100.00
18022;BME280;9136;48.822;7.966;2023-08-06T00:36:17;99385.31;;;16.18;100.00
18022;BME280;9136;48.822;7.966;2023-08-06T00:39:05;99372.38;;;16.14;100.00
18022;BME280;9136;48.822;7.966;2023-08-06T00:41:53;99367.31;;;16.23;100.00
18022;BME280;9136;48.822;7.966;2023-08-06T00:44:40;99367.81;;;16.16;100.00
18022;BME280;9136;48.822;7.966;2023-08-06T00:47:28;99377.91;;;16.23;100.00
18022;BME280;9136;48.822;7.966;2023-08-06T00:50:18;99356.03;;;16.20;100.00
18022;BME280;9136;48.822;7.966;2023-08-06T00:53:07;99355.09;;;16.21;100.00
18022;BME280;9136;48.822;7.966;2023-08-06T00:55:56;99349.72;;;16.22;100.00
18022;BME280;9136;48.822;7.966;2023-08-06T00:58:44;99359.84;;;16.28;100.00
18022;BME280;9136;48.822;7.966;2023-08-06T01:01:33;99363.06;;;16.34;100.00
18022;BME280;9136;48.822;7.966;2023-08-06T01:04:22;99358.81;;;16.31;100.00
18022;BME280;9136;48.822;7.966;2023-08-06T01:07:27;99341.75;;;16.22;100.00
18022;BME280;9136;48.822;7.966;2023-08-06T01:10:29;99352.22;;;16.37;100.00
18022;BME280;9136;48.822;7.966;2023-08-06T01:13:24;99343.34;;;16.25;100.00
18022;BME280;9136;48.822;7.966;2023-08-06T01:16:15;99334.44;;;16.26;100.00
18022;BME280;9136;48.822;7.966;2023-08-06T01:19:04;99329.13;;;16.26;100.00
18022;BME280;9136;48.822;7.966;2023-08-06T01:21:53;99340.16;;;16.33;100.00
18022;BME280;9136;48.822;7.966;2023-08-06T01:24:45;99337.28;;;16.36;100.00
18022;BME280;9136;48.822;7.966;2023-08-06T01:27:42;99339.50;;;16.42;100.00
18022;BME280;9136;48.822;7.966;2023-08-06T01:30:33;99345.22;;;16.36;100.00
18022;BME280;9136;48.822;7.966;2023-08-06T01:33:23;99377.44;;;16.29;100.00
18022;BME280;9136;48.822;7.966;2023-08-06T01:36:12;99348.53;;;16.01;100.00
18022;BME280;9136;48.822;7.966;2023-08-06T01:39:04;99349.88;;;15.81;100.00
18022;BME280;9136;48.822;7.966;2023-08-06T01:41:52;99364.09;;;15.80;100.00
18022;BME280;9136;48.822;7.966;2023-08-06T01:44:40;99334.69;;;15.58;100.00
18022;BME280;9136;48.822;7.966;2023-08-06T01:47:28;99348.13;;;15.55;100.00
18022;BME280;9136;48.822;7.966;2023-08-06T01:50:15;99341.78;;;15.44;100.00
18022;BME280;9136;48.822;7.966;2023-08-06T01:53:03;99329.22;;;15.34;100.00
18022;BME280;9136;48.822;7.966;2023-08-06T01:55:52;99335.03;;;15.26;100.00
18022;BME280;9136;48.822;7.966;2023-08-06T01:58:40;99345.53;;;15.28;100.00
18022;BME280;9136;48.822;7.966;2023-08-06T02:01:28;99344.34;;;15.19;100.00
18022;BME280;9136;48.822;7.966;2023-08-06T02:04:16;99325.97;;;15.03;100.00
18022;BME280;9136;48.822;7.966;2023-08-06T02:07:04;99338.41;;;14.88;100.00
18022;BME280;9136;48.822;7.966;2023-08-06T02:09:52;99345.59;;;14.86;100.00
18022;BME280;9136;48.822;7.966;2023-08-06T02:12:41;99346.44;;;14.73;100.00
18022;BME280;9136;48.822;7.966;2023-08-06T02:15:31;99366.06;;;14.83;100.00
18022;BME280;9136;48.822;7.966;2023-08-06T02:18:19;99372.94;;;14.85;100.00
18022;BME280;9136;48.822;7.966;2023-08-06T02:21:07;99356.91;;;14.74;100.00
18022;BME280;9136;48.822;7.966;2023-08-06T02:23:54;99353.16;;;14.78;100.00
18022;BME280;9136;48.822;7.966;2023-08-06T02:26:42;99352.88;;;14.69;100.00
18022;BME280;9136;48.822;7.966;2023-08-06T02:29:32;99345.72;;;14.56;100.00
18022;BME280;9136;48.822;7.966;2023-08-06T02:32:19;99358.19;;;14.54;100.00
18022;BME280;9136;48.822;7.966;2023-08-06T02:35:08;99365.72;;;14.60;100.00
18022;BME280;9136;48.822;7.966;2023-08-06T02:37:56;99356.22;;;14.58;100.00
18022;BME280;9136;48.822;7.966;2023-08-06T02:40:44;99337.88;;;14.41;100.00
18022;BME280;9136;48.822;7.966;2023-08-06T02:43:32;99348.56;;;14.39;100.00
18022;BME280;9136;48.822;7.966;2023-08-06T02:46:21;99351.25;;;14.38;100.00
18022;BME280;9136;48.822;7.966;2023-08-06T02:49:10;99351.75;;;14.30;100.00
18022;BME280;9136;48.822;7.966;2023-08-06T02:51:58;99344.03;;;14.13;100.00
18022;BME280;9136;48.822;7.966;2023-08-06T02:54:45;99358.25;;;14.24;100.00
18022;BME280;9136;48.822;7.966;2023-08-06T02:57:33;99354.22;;;14.19;100.00
18022;BME280;9136;48.822;7.966;2023-08-06T03:00:21;99340.44;;;14.14;100.00
18022;BME280;9136;48.822;7.966;2023-08-06T03:03:10;99345.72;;;14.14;100.00
18022;BME280;9136;48.822;7.966;2023-08-06T03:05:59;99367.31;;;14.20;100.00
18022;BME280;9136;48.822;7.966;2023-08-06T03:08:47;99348.56;;;14.11;100.00
18022;BME280;9136;48.822;7.966;2023-08-06T03:11:36;99347.31;;;14.02;100.00
18022;BME280;9136;48.822;7.966;2023-08-06T03:14:23;99349.31;;;14.13;100.00
18022;BME280;9136;48.822;7.966;2023-08-06T03:17:12;99369.78;;;14.23;100.00
18022;BME280;9136;48.822;7.966;2023-08-06T03:20:02;99345.91;;;14.25;100.00
18022;BME280;9136;48.822;7.966;2023-08-06T03:22:50;99335.34;;;14.25;100.00
18022;BME280;9136;48.822;7.966;2023-08-06T03:25:38;99328.16;;;14.27;100.00
18022;BME280;9136;48.822;7.966;2023-08-06T03:28:26;99341.09;;;14.31;100.00
18022;BME280;9136;48.822;7.966;2023-08-06T03:31:13;99355.81;;;14.36;100.00
18022;BME280;9136;48.822;7.966;2023-08-06T03:34:01;99344.78;;;14.29;100.00
18022;BME280;9136;48.822;7.966;2023-08-06T03:36:51;99342.78;;;14.32;100.00
18022;BME280;9136;48.822;7.966;2023-08-06T03:39:39;99325.06;;;14.20;100.00
18022;BME280;9136;48.822;7.966;2023-08-06T03:42:26;99336.75;;;14.30;100.00
18022;BME280;9136;48.822;7.966;2023-08-06T03:45:14;99341.84;;;14.33;100.00
18022;BME280;9136;48.822;7.966;2023-08-06T03:48:02;99341.66;;;14.37;100.00
18022;BME280;9136;48.822;7.966;2023-08-06T03:50:50;99328.63;;;14.33;100.00
18022;BME280;9136;48.822;7.966;2023-08-06T03:53:40;99336.75;;;14.45;100.00
18022;BME280;9136;48.822;7.966;2023-08-06T03:56:27;99339.41;;;14.45;100.00
18022;BME280;9136;48.822;7.966;2023-08-06T03:59:17;99339.31;;;14.46;100.00
18022;BME280;9136;48.822;7.966;2023-08-06T04:02:05;99333.34;;;14.43;100.00
18022;BME280;9136;48.822;7.966;2023-08-06T04:04:52;99334.28;;;14.42;100.00
18022;BME280;9136;48.822;7.966;2023-08-06T04:07:40;99322.81;;;14.28;100.00
18022;BME280;9136;48.822;7.966;2023-08-06T04:10:30;99329.28;;;14.37;100.00
18022;BME280;9136;48.822;7.966;2023-08-06T04:13:18;99323.25;;;14.35;100.00
18022;BME280;9136;48.822;7.966;2023-08-06T04:16:07;99333.53;;;14.40;100.00
18022;BME280;9136;48.822;7.966;2023-08-06T04:18:55;99353.47;;;14.45;100.00
18022;BME280;9136;48.822;7.966;2023-08-06T04:21:44;99352.88;;;14.40;100.00
18022;BME280;9136;48.822;7.966;2023-08-06T04:24:34;99335.50;;;14.36;100.00
18022;BME280;9136;48.822;7.966;2023-08-06T04:27:23;99332.59;;;14.26;100.00
18022;BME280;9136;48.822;7.966;2023-08-06T04:30:11;99335.81;;;14.46;100.00
18022;BME280;9136;48.822;7.966;2023-08-06T04:32:59;99329.94;;;14.26;100.00
18022;BME280;9136;48.822;7.966;2023-08-06T04:35:47;99348.06;;;14.18;100.00
18022;BME280;9136;48.822;7.966;2023-08-06T04:38:35;99349.00;;;14.03;100.00
18022;BME280;9136;48.822;7.966;2023-08-06T04:41:23;99322.78;;;13.86;100.00
18022;BME280;9136;48.822;7.966;2023-08-06T04:44:17;99342.84;;;13.88;100.00
18022;BME280;9136;48.822;7.966;2023-08-06T04:47:08;99333.06;;;13.90;100.00
18022;BME280;9136;48.822;7.966;2023-08-06T04:49:57;99323.72;;;13.85;100.00
18022;BME280;9136;48.822;7.966;2023-08-06T04:52:44;99324.47;;;13.87;100.00
18022;BME280;9136;48.822;7.966;2023-08-06T04:55:32;99327.84;;;13.89;100.00
18022;BME280;9136;48.822;7.966;2023-08-06T04:58:28;99318.94;;;13.91;100.00
18022;BME280;9136;48.822;7.966;2023-08-06T05:01:18;99350.81;;;14.17;100.00
18022;BME280;9136;48.822;7.966;2023-08-06T05:04:06;99323.25;;;14.07;100.00
18022;BME280;9136;48.822;7.966;2023-08-06T05:06:54;99336.94;;;14.13;100.00
18022;BME280;9136;48.822;7.966;2023-08-06T05:09:42;99366.66;;;14.17;100.00
18022;BME280;9136;48.822;7.966;2023-08-06T05:12:31;99339.78;;;14.10;100.00
18022;BME280;9136;48.822;7.966;2023-08-06T05:15:19;99358.63;;;14.18;100.00
18022;BME280;9136;48.822;7.966;2023-08-06T05:18:13;99327.88;;;14.03;100.00
18022;BME280;9136;48.822;7.966;2023-08-06T05:21:02;99343.38;;;14.09;100.00
18022;BME280;9136;48.822;7.966;2023-08-06T05:23:50;99362.22;;;14.17;100.00
18022;BME280;9136;48.822;7.966;2023-08-06T05:26:41;99361.00;;;14.23;100.00
18022;BME280;9136;48.822;7.966;2023-08-06T05:29:32;99365.25;;;14.25;100.00
18022;BME280;9136;48.822;7.966;2023-08-06T05:32:20;99345.13;;;14.09;100.00
18022;BME280;9136;48.822;7.966;2023-08-06T05:35:25;99356.47;;;14.11;100.00
18022;BME280;9136;48.822;7.966;2023-08-06T05:38:19;99370.41;;;14.27;100.00
18022;BME280;9136;48.822;7.966;2023-08-06T05:41:08;99369.13;;;14.20;100.00
18022;BME280;9136;48.822;7.966;2023-08-06T05:43:56;99358.63;;;14.18;100.00
18022;BME280;9136;48.822;7.966;2023-08-06T05:46:48;99356.56;;;14.09;100.00
18022;BME280;9136;48.822;7.966;2023-08-06T05:49:37;99360.53;;;14.16;100.00
18022;BME280;9136;48.822;7.966;2023-08-06T05:52:26;99383.47;;;14.30;100.00
18022;BME280;9136;48.822;7.966;2023-08-06T05:55:17;99369.13;;;14.20;100.00
18022;BME280;9136;48.822;7.966;2023-08-06T05:58:27;99397.78;;;14.26;100.00
18022;BME280;9136;48.822;7.966;2023-08-06T06:01:16;99378.34;;;14.13;100.00
18022;BME280;9136;48.822;7.966;2023-08-06T06:04:05;99388.56;;;14.19;100.00
18022;BME280;9136;48.822;7.966;2023-08-06T06:06:53;99379.41;;;14.10;100.00
18022;BME280;9136;48.822;7.966;2023-08-06T06:09:43;99396.25;;;14.08;100.00
18022;BME280;9136;48.822;7.966;2023-08-06T06:12:33;99381.25;;;14.08;100.00
18022;BME280;9136;48.822;7.966;2023-08-06T06:15:22;99391.75;;;14.10;100.00
18022;BME280;9136;48.822;7.966;2023-08-06T06:18:10;99370.03;;;14.04;100.00
18022;BME280;9136;48.822;7.966;2023-08-06T06:20:58;99370.53;;;14.11;100.00
18022;BME280;9136;48.822;7.966;2023-08-06T06:23:46;99410.34;;;14.22;100.00
18022;BME280;9136;48.822;7.966;2023-08-06T06:26:35;99395.25;;;14.10;100.00
18022;BME280;9136;48.822;7.966;2023-08-06T06:29:26;99403.16;;;14.10;100.00
18022;BME280;9136;48.822;7.966;2023-08-06T06:32:14;99415.69;;;14.07;100.00
18022;BME280;9136;48.822;7.966;2023-08-06T06:35:02;99406.66;;;14.11;100.00
18022;BME280;9136;48.822;7.966;2023-08-06T06:37:50;99404.97;;;14.10;100.00
18022;BME280;9136;48.822;7.966;2023-08-06T06:40:39;99411.44;;;14.18;100.00
18022;BME280;9136;48.822;7.966;2023-08-06T06:43:29;99392.13;;;14.18;100.00
18022;BME280;9136;48.822;7.966;2023-08-06T06:46:18;99424.69;;;14.32;100.00
18022;BME280;9136;48.822;7.966;2023-08-06T06:49:07;99402.22;;;14.25;100.00
18022;BME280;9136;48.822;7.966;2023-08-06T06:51:55;99403.44;;;14.34;100.00
18022;BME280;9136;48.822;7.966;2023-08-06T06:54:43;99400.31;;;14.27;100.00
18022;BME280;9136;48.822;7.966;2023-08-06T06:57:31;99411.47;;;14.32;100.00
18022;BME280;9136;48.822;7.966;2023-08-06T07:00:23;99417.78;;;14.16;100.00
18022;BME280;9136;48.822;7.966;2023-08-06T07:03:14;99409.75;;;14.03;100.00
18022;BME280;9136;48.822;7.966;2023-08-06T07:06:08;99415.78;;;14.05;100.00
18022;BME280;9136;48.822;7.966;2023-08-06T07:09:20;99408.31;;;13.97;100.00
18022;BME280;9136;48.822;7.966;2023-08-06T07:12:15;99388.72;;;14.01;100.00
18022;BME280;9136;48.822;7.966;2023-08-06T07:15:14;99413.13;;;14.05;100.00
18022;BME280;9136;48.822;7.966;2023-08-06T07:18:26;99398.16;;;14.06;100.00
18022;BME280;9136;48.822;7.966;2023-08-06T07:21:47;99420.81;;;14.24;100.00
18022;BME280;9136;48.822;7.966;2023-08-06T07:24:58;99394.09;;;14.14;100.00
18022;BME280;9136;48.822;7.966;2023-08-06T07:27:53;99400.31;;;14.13;100.00
18022;BME280;9136;48.822;7.966;2023-08-06T07:31:06;99416.63;;;14.06;100.00
18022;BME280;9136;48.822;7.966;2023-08-06T07:34:06;99442.78;;;14.24;100.00
18022;BME280;9136;48.822;7.966;2023-08-06T07:37:17;99439.50;;;14.21;100.00
18022;BME280;9136;48.822;7.966;2023-08-06T07:40:18;99433.53;;;14.17;100.00
18022;BME280;9136;48.822;7.966;2023-08-06T07:43:25;99451.66;;;14.23;100.00
18022;BME280;9136;48.822;7.966;2023-08-06T07:46:27;99429.78;;;14.21;100.00
18022;BME280;9136;48.822;7.966;2023-08-06T07:49:34;99430.34;;;14.26;100.00
18022;BME280;9136;48.822;7.966;2023-08-06T07:52:22;99420.44;;;14.30;100.00
18022;BME280;9136;48.822;7.966;2023-08-06T07:55:13;99433.66;;;14.44;100.00
18022;BME280;9136;48.822;7.966;2023-08-06T07:58:25;99444.66;;;14.52;100.00
18022;BME280;9136;48.822;7.966;2023-08-06T08:01:25;99433.50;;;14.47;100.00
18022;BME280;9136;48.822;7.966;2023-08-06T08:04:29;99466.19;;;14.60;100.00
18022;BME280;9136;48.822;7.966;2023-08-06T08:07:26;99429.84;;;14.50;100.00
18022;BME280;9136;48.822;7.966;2023-08-06T08:10:19;99440.53;;;14.32;100.00
18022;BME280;9136;48.822;7.966;2023-08-06T08:13:16;99437.25;;;14.29;100.00
18022;BME280;9136;48.822;7.966;2023-08-06T08:19:55;99442.63;;;14.42;100.00
18022;BME280;9136;48.822;7.966;2023-08-06T08:23:02;99455.09;;;14.40;100.00
18022;BME280;9136;48.822;7.966;2023-08-06T08:25:52;99447.59;;;14.48;100.00
18022;BME280;9136;48.822;7.966;2023-08-06T08:28:42;99454.63;;;14.47;100.00
18022;BME280;9136;48.822;7.966;2023-08-06T08:31:37;99443.31;;;14.45;100.00
18022;BME280;9136;48.822;7.966;2023-08-06T08:34:59;99465.88;;;14.65;100.00
18022;BME280;9136;48.822;7.966;2023-08-06T08:38:26;99457.28;;;14.47;100.00
18022;BME280;9136;48.822;7.966;2023-08-06T08:41:24;99460.78;;;14.48;100.00
18022;BME280;9136;48.822;7.966;2023-08-06T08:44:41;99457.84;;;14.52;100.00
18022;BME280;9136;48.822;7.966;2023-08-06T08:47:41;99483.34;;;14.53;100.00
18022;BME280;9136;48.822;7.966;2023-08-06T08:50:40;99473.22;;;14.46;100.00
18022;BME280;9136;48.822;7.966;2023-08-06T08:53:31;99489.38;;;14.55;100.00
18022;BME280;9136;48.822;7.966;2023-08-06T08:56:33;99479.72;;;14.40;100.00
18022;BME280;9136;48.822;7.966;2023-08-06T09:01:12;99477.16;;;14.39;100.00
18022;BME280;9136;48.822;7.966;2023-08-06T09:03:14;99503.72;;;14.51;100.00
18022;BME280;9136;48.822;7.966;2023-08-06T09:06:14;99473.94;;;14.33;100.00
18022;BME280;9136;48.822;7.966;2023-08-06T09:10:33;99480.56;;;14.41;100.00
18022;BME280;9136;48.822;7.966;2023-08-06T09:27:48;99527.88;;;14.45;100.00
18022;BME280;9136;48.822;7.966;2023-08-06T09:30:36;99518.94;;;14.48;100.00
18022;BME280;9136;48.822;7.966;2023-08-06T09:33:40;99545.72;;;14.56;100.00
18022;BME280;9136;48.822;7.966;2023-08-06T09:36:40;99549.31;;;14.55;100.00
18022;BME280;9136;48.822;7.966;2023-08-06T09:40:20;99560.63;;;14.57;100.00
18022;BME280;9136;48.822;7.966;2023-08-06T09:47:04;99553.44;;;14.45;100.00
18022;BME280;9136;48.822;7.966;2023-08-06T09:50:15;99564.44;;;14.37;100.00
18022;BME280;9136;48.822;7.966;2023-08-06T09:53:22;99548.78;;;14.34;100.00
18022;BME280;9136;48.822;7.966;2023-08-06T09:56:53;99559.88;;;14.25;100.00
18022;BME280;9136;48.822;7.966;2023-08-06T09:59:53;99557.03;;;14.28;100.00
18022;BME280;9136;48.822;7.966;2023-08-06T10:03:16;99566.00;;;14.25;100.00
18022;BME280;9136;48.822;7.966;2023-08-06T10:09:55;99590.94;;;14.36;100.00
18022;BME280;9136;48.822;7.966;2023-08-06T10:13:04;99594.22;;;14.25;100.00
18022;BME280;9136;48.822;7.966;2023-08-06T10:23:08;99598.66;;;14.24;100.00
18022;BME280;9136;48.822;7.966;2023-08-06T10:26:03;99621.91;;;14.33;100.00
18022;BME280;9136;48.822;7.966;2023-08-06T10:29:36;99618.75;;;14.27;100.00
18022;BME280;9136;48.822;7.966;2023-08-06T10:33:07;99622.00;;;14.32;100.00
18022;BME280;9136;48.822;7.966;2023-08-06T10:36:22;99642.28;;;14.31;100.00
18022;BME280;9136;48.822;7.966;2023-08-06T10:43:25;99631.09;;;14.26;100.00
18022;BME280;9136;48.822;7.966;2023-08-06T10:47:55;99626.16;;;14.36;100.00
18022;BME280;9136;48.822;7.966;2023-08-06T10:50:16;99650.34;;;14.60;100.00
18022;BME280;9136;48.822;7.966;2023-08-06T10:53:23;99638.94;;;14.44;100.00
18022;BME280;9136;48.822;7.966;2023-08-06T10:56:26;99644.56;;;14.38;100.00
18022;BME280;9136;48.822;7.966;2023-08-06T10:59:30;99648.66;;;14.27;100.00
18022;BME280;9136;48.822;7.966;2023-08-06T11:02:27;99665.03;;;14.34;100.00
18022;BME280;9136;48.822;7.966;2023-08-06T11:05:18;99677.66;;;14.29;100.00
18022;BME280;9136;48.822;7.966;2023-08-06T11:08:11;99663.28;;;14.19;100.00
18022;BME280;9136;48.822;7.966;2023-08-06T11:11:19;99682.66;;;14.33;100.00
18022;BME280;9136;48.822;7.966;2023-08-06T11:14:17;99661.63;;;14.16;100.00
18022;BME280;9136;48.822;7.966;2023-08-06T11:17:07;99673.75;;;14.20;100.00
18022;BME280;9136;48.822;7.966;2023-08-06T11:20:05;99671.00;;;14.22;100.00
18022;BME280;9136;48.822;7.966;2023-08-06T11:22:53;99673.47;;;14.25;100.00
18022;BME280;9136;48.822;7.966;2023-08-06T11:25:44;99692.09;;;14.38;100.00
18022;BME280;9136;48.822;7.966;2023-08-06T11:28:32;99703.13;;;14.46;100.00
18022;BME280;9136;48.822;7.966;2023-08-06T11:31:25;99681.47;;;14.39;100.00
18022;BME280;9136;48.822;7.966;2023-08-06T11:34:18;99690.03;;;14.28;100.00
18022;BME280;9136;48.822;7.966;2023-08-06T11:37:07;99675.59;;;14.34;100.00
18022;BME280;9136;48.822;7.966;2023-08-06T11:40:01;99690.53;;;14.51;100.00
18022;BME280;9136;48.822;7.966;2023-08-06T11:43:07;99673.19;;;14.61;100.00
18022;BME280;9136;48.822;7.966;2023-08-06T11:46:11;99680.16;;;14.78;100.00
18022;BME280;9136;48.822;7.966;2023-08-06T11:49:16;99686.75;;;14.85;100.00
18022;BME280;9136;48.822;7.966;2023-08-06T11:52:34;99682.38;;;15.14;100.00
18022;BME280;9136;48.822;7.966;2023-08-06T11:55:52;99684.50;;;15.37;100.00
18022;BME280;9136;48.822;7.966;2023-08-06T11:58:56;99678.31;;;15.67;100.00
18022;BME280;9136;48.822;7.966;2023-08-06T12:02:11;99680.66;;;15.71;100.00
18022;BME280;9136;48.822;7.966;2023-08-06T12:05:19;99692.47;;;15.80;100.00
18022;BME280;9136;48.822;7.966;2023-08-06T12:08:19;99697.50;;;15.85;100.00
18022;BME280;9136;48.822;7.966;2023-08-06T12:11:29;99691.91;;;16.30;100.00
18022;BME280;9136;48.822;7.966;2023-08-06T12:22:44;99737.41;;;15.67;100.00
18022;BME280;9136;48.822;7.966;2023-08-06T12:25:56;99708.81;;;15.58;100.00
18022;BME280;9136;48.822;7.966;2023-08-06T12:32:10;99722.78;;;16.31;100.00
18022;BME280;9136;48.822;7.966;2023-08-06T12:35:43;99705.38;;;16.54;100.00
18022;BME280;9136;48.822;7.966;2023-08-06T12:38:37;99721.78;;;17.13;100.00
18022;BME280;9136;48.822;7.966;2023-08-06T12:41:36;99722.75;;;17.25;100.00
18022;BME280;9136;48.822;7.966;2023-08-06T13:03:17;99713.41;;;18.69;100.00
18022;BME280;9136;48.822;7.966;2023-08-06T13:09:54;99738.66;;;18.14;100.00
18022;BME280;9136;48.822;7.966;2023-08-06T13:13:39;99726.78;;;17.56;100.00
18022;BME280;9136;48.822;7.966;2023-08-06T13:17:42;99723.00;;;18.22;100.00
18022;BME280;9136;48.822;7.966;2023-08-06T13:21:57;99732.31;;;19.59;100.00
18022;BME280;9136;48.822;7.966;2023-08-06T13:24:17;99741.38;;;18.75;100.00
18022;BME280;9136;48.822;7.966;2023-08-06T13:27:06;99738.84;;;18.73;100.00
18022;BME280;9136;48.822;7.966;2023-08-06T13:30:01;99752.13;;;18.37;100.00
18022;BME280;9136;48.822;7.966;2023-08-06T13:36:44;99735.66;;;17.57;100.00
18022;BME280;9136;48.822;7.966;2023-08-06T13:39:55;99764.38;;;17.25;100.00
18022;BME280;9136;48.822;7.966;2023-08-06T13:43:37;99771.03;;;17.17;100.00
18022;BME280;9136;48.822;7.966;2023-08-06T13:47:12;99777.91;;;16.95;100.00
18022;BME280;9136;48.822;7.966;2023-08-06T17:58:42;99993.00;;;16.63;100.00
18022;BME280;9136;48.822;7.966;2023-08-06T18:01:49;100017.66;;;16.94;100.00
18022;BME280;9136;48.822;7.966;2023-08-06T18:05:03;99993.13;;;16.90;100.00
18022;BME280;9136;48.822;7.966;2023-08-06T18:08:01;100021.34;;;17.20;100.00
18022;BME280;9136;48.822;7.966;2023-08-06T18:15:25;100058.59;;;17.04;100.00
18022;BME280;9136;48.822;7.966;2023-08-06T18:17:59;100046.56;;;16.84;100.00
18022;BME280;9136;48.822;7.966;2023-08-06T18:25:56;100020.81;;;16.42;100.00
18022;BME280;9136;48.822;7.966;2023-08-06T19:41:35;100132.53;;;13.27;100.00
18022;BME280;9136;48.822;7.966;2023-08-06T19:44:23;100158.44;;;13.17;100.00
18022;BME280;9136;48.822;7.966;2023-08-06T19:47:30;100145.50;;;13.11;100.00
18022;BME280;9136;48.822;7.966;2023-08-06T19:50:38;100153.88;;;13.01;100.00
18022;BME280;9136;48.822;7.966;2023-08-06T19:53:27;100144.56;;;12.94;100.00
18022;BME280;9136;48.822;7.966;2023-08-06T19:56:47;100134.66;;;12.78;100.00
18022;BME280;9136;48.822;7.966;2023-08-06T20:00:06;100140.94;;;12.76;100.00
18022;BME280;9136;48.822;7.966;2023-08-06T20:06:23;100156.69;;;12.77;100.00
18022;BME280;9136;48.822;7.966;2023-08-06T20:09:16;100112.97;;;12.51;100.00
18022;BME280;9136;48.822;7.966;2023-08-06T20:15:48;100104.13;;;12.52;100.00
18022;BME280;9136;48.822;7.966;2023-08-06T20:19:24;100116.00;;;12.63;100.00
18022;BME280;9136;48.822;7.966;2023-08-06T20:22:38;100121.88;;;12.69;100.00
18022;BME280;9136;48.822;7.966;2023-08-06T20:26:18;100116.69;;;12.68;100.00
18022;BME280;9136;48.822;7.966;2023-08-06T20:29:46;100103.81;;;12.60;100.00
18022;BME280;9136;48.822;7.966;2023-08-06T20:32:53;100102.72;;;12.66;100.00
18022;BME280;9136;48.822;7.966;2023-08-06T20:36:46;100095.00;;;12.61;100.00
18022;BME280;9136;48.822;7.966;2023-08-06T20:43:19;100131.25;;;12.76;100.00
18022;BME280;9136;48.822;7.966;2023-08-06T20:46:31;100108.16;;;12.61;100.00
18022;BME280;9136;48.822;7.966;2023-08-06T20:51:11;100127.81;;;12.74;100.00
18022;BME280;9136;48.822;7.966;2023-08-06T20:57:17;100123.59;;;12.70;100.00
18022;BME280;9136;48.822;7.966;2023-08-06T21:00:43;100123.41;;;12.75;100.00
18022;BME280;9136;48.822;7.966;2023-08-06T21:03:56;100148.94;;;12.93;100.00
18022;BME280;9136;48.822;7.966;2023-08-06T21:07:57;100130.16;;;12.80;100.00
18022;BME280;9136;48.822;7.966;2023-08-06T21:11:17;100134.44;;;12.83;100.00
18022;BME280;9136;48.822;7.966;2023-08-06T21:14:56;100147.91;;;12.97;100.00
18022;BME280;9136;48.822;7.966;2023-08-06T21:18:12;100147.84;;;12.99;100.00
18022;BME280;9136;48.822;7.966;2023-08-06T21:35:38;100177.22;;;13.10;100.00
18022;BME280;9136;48.822;7.966;2023-08-06T21:42:26;100173.03;;;13.06;100.00
18022;BME280;9136;48.822;7.966;2023-08-06T21:45:46;100173.09;;;13.04;100.00
18022;BME280;9136;48.822;7.966;2023-08-06T21:52:28;100172.88;;;13.09;100.00
18022;BME280;9136;48.822;7.966;2023-08-06T21:56:20;100165.81;;;13.09;100.00
18022;BME280;9136;48.822;7.966;2023-08-06T22:03:20;100206.22;;;13.32;100.00
18022;BME280;9136;48.822;7.966;2023-08-06T22:06:54;100177.91;;;13.15;100.00
18022;BME280;9136;48.822;7.966;2023-08-06T22:13:53;100183.09;;;13.37;100.00
18022;BME280;9136;48.822;7.966;2023-08-06T22:21:14;100203.78;;;13.46;100.00
18022;BME280;9136;48.822;7.966;2023-08-06T22:28:07;100177.31;;;13.29;100.00
18022;BME280;9136;48.822;7.966;2023-08-06T22:31:57;100174.94;;;13.23;100.00
18022;BME280;9136;48.822;7.966;2023-08-06T22:35:31;100187.78;;;13.30;100.00
18022;BME280;9136;48.822;7.966;2023-08-06T22:50:29;100194.19;;;13.25;100.00
18022;BME280;9136;48.822;7.966;2023-08-06T22:53:59;100199.06;;;13.34;100.00
18022;BME280;9136;48.822;7.966;2023-08-06T22:57:17;100205.13;;;13.36;100.00
18022;BME280;9136;48.822;7.966;2023-08-06T23:00:47;100240.47;;;13.52;100.00
18022;BME280;9136;48.822;7.966;2023-08-06T23:04:15;100201.50;;;13.38;100.00
18022;BME280;9136;48.822;7.966;2023-08-06T23:14:41;100211.47;;;13.32;100.00
18022;BME280;9136;48.822;7.966;2023-08-06T23:17:54;100218.19;;;13.39;100.00
18022;BME280;9136;48.822;7.966;2023-08-06T23:52:26;100232.75;;;13.48;100.00
18022;BME280;9136;48.822;7.966;2023-08-06T23:56:02;100246.94;;;13.45;100.00
